KADG/ADG METAR and TAF weather

Enter ICAO airport designator
Station Type Date Time Source
KADG METAR 2018/07/21 22:53 UTC NOAA

KADG 212253Z AUTO 11007KT 10SM -RA BKN025 BKN034 OVC044 23/18 A2975 RMK AO2 RAB47 SLP073 P0000 T02280183 TSNO


Station Type Date Time Source
KADG Decoded METAR 2018/07/21 22:53 UTC NOAA

ADRIAN LENAWEE COUNTY AIRPORT, MI, United States (KADG) 41-52N 84-05W 241M
Jul 21, 2018 - 06:53 PM EDT / 2018.07.21 2253 UTC
Wind: from the ESE (110 degrees) at 8 MPH (7 KT):0
Visibility: 10 mile(s):0
Sky conditions: overcast
Weather: light rain
Precipitation last hour: A trace
Temperature: 73.0 F (22.8 C)
Dew Point: 64.9 F (18.3 C)
Relative Humidity: 75%
Pressure (altimeter): 29.75 in. Hg (1007 hPa)
ob: KADG 212253Z AUTO 11007KT 10SM -RA BKN025 BKN034 OVC044 23/18 A2975 RMK AO2 RAB47 SLP073 P0000 T02280183 TSNO
cycle: 23

Station Type Date Time Source
KADG TAF UTC NOAA

Error!


Example: see airport list